sensor_id;sensor_type;location;lat;lon;timestamp;temperature;humidity
12254;DHT22;6189;52.526;13.390;2023-05-19T00:02:04;15.10;74.00
12254;DHT22;6189;52.526;13.390;2023-05-19T00:04:52;15.20;74.00
12254;DHT22;6189;52.526;13.390;2023-05-19T00:07:37;15.10;74.20
12254;DHT22;6189;52.526;13.390;2023-05-19T00:10:24;15.20;74.30
12254;DHT22;6189;52.526;13.390;2023-05-19T00:13:13;14.80;74.50
12254;DHT22;6189;52.526;13.390;2023-05-19T00:15:59;15.00;74.40
12254;DHT22;6189;52.526;13.390;2023-05-19T00:18:44;15.00;74.30
12254;DHT22;6189;52.526;13.390;2023-05-19T00:21:30;15.00;74.10
12254;DHT22;6189;52.526;13.390;2023-05-19T00:24:16;15.00;73.70
12254;DHT22;6189;52.526;13.390;2023-05-19T00:27:03;15.00;73.90
12254;DHT22;6189;52.526;13.390;2023-05-19T00:29:48;15.00;74.00
12254;DHT22;6189;52.526;13.390;2023-05-19T00:32:34;15.00;73.80
12254;DHT22;6189;52.526;13.390;2023-05-19T00:35:19;14.90;73.90
12254;DHT22;6189;52.526;13.390;2023-05-19T00:38:05;14.90;73.80
12254;DHT22;6189;52.526;13.390;2023-05-19T00:40:50;14.90;74.10
12254;DHT22;6189;52.526;13.390;2023-05-19T00:43:37;14.90;74.30
12254;DHT22;6189;52.526;13.390;2023-05-19T00:46:22;14.80;73.90
12254;DHT22;6189;52.526;13.390;2023-05-19T00:49:07;14.70;74.10
12254;DHT22;6189;52.526;13.390;2023-05-19T00:51:53;14.70;74.30
12254;DHT22;6189;52.526;13.390;2023-05-19T00:54:38;14.80;74.20
12254;DHT22;6189;52.526;13.390;2023-05-19T00:57:23;14.80;74.20
12254;DHT22;6189;52.526;13.390;2023-05-19T01:00:12;14.70;74.10
12254;DHT22;6189;52.526;13.390;2023-05-19T01:02:57;14.70;74.70
12254;DHT22;6189;52.526;13.390;2023-05-19T01:05:43;14.60;74.20
12254;DHT22;6189;52.526;13.390;2023-05-19T01:08:29;14.40;75.30
12254;DHT22;6189;52.526;13.390;2023-05-19T01:11:14;14.50;75.00
12254;DHT22;6189;52.526;13.390;2023-05-19T01:14:00;14.50;75.00
12254;DHT22;6189;52.526;13.390;2023-05-19T01:16:48;14.50;74.80
12254;DHT22;6189;52.526;13.390;2023-05-19T01:19:39;14.50;75.60
12254;DHT22;6189;52.526;13.390;2023-05-19T01:22:31;14.50;75.00
12254;DHT22;6189;52.526;13.390;2023-05-19T01:28:40;14.40;75.10
12254;DHT22;6189;52.526;13.390;2023-05-19T01:31:35;14.50;75.00
12254;DHT22;6189;52.526;13.390;2023-05-19T01:34:21;14.40;75.20
12254;DHT22;6189;52.526;13.390;2023-05-19T01:37:07;14.40;75.40
12254;DHT22;6189;52.526;13.390;2023-05-19T01:39:53;14.40;75.40
12254;DHT22;6189;52.526;13.390;2023-05-19T01:42:39;14.30;75.50
12254;DHT22;6189;52.526;13.390;2023-05-19T01:45:25;14.30;75.40
12254;DHT22;6189;52.526;13.390;2023-05-19T01:48:12;14.30;75.40
12254;DHT22;6189;52.526;13.390;2023-05-19T01:50:58;14.30;75.60
12254;DHT22;6189;52.526;13.390;2023-05-19T01:53:44;14.30;75.50
12254;DHT22;6189;52.526;13.390;2023-05-19T01:56:31;14.20;75.70
12254;DHT22;6189;52.526;13.390;2023-05-19T01:59:23;14.20;75.50
12254;DHT22;6189;52.526;13.390;2023-05-19T02:02:14;14.00;76.20
12254;DHT22;6189;52.526;13.390;2023-05-19T02:05:06;14.00;76.50
12254;DHT22;6189;52.526;13.390;2023-05-19T02:07:56;14.00;76.10
12254;DHT22;6189;52.526;13.390;2023-05-19T02:10:43;14.00;75.90
12254;DHT22;6189;52.526;13.390;2023-05-19T02:13:32;14.10;76.00
12254;DHT22;6189;52.526;13.390;2023-05-19T02:16:18;14.10;75.90
12254;DHT22;6189;52.526;13.390;2023-05-19T02:19:05;14.00;75.80
12254;DHT22;6189;52.526;13.390;2023-05-19T02:21:52;13.90;76.30
12254;DHT22;6189;52.526;13.390;2023-05-19T02:24:37;13.80;76.50
12254;DHT22;6189;52.526;13.390;2023-05-19T02:27:24;13.80;76.80
12254;DHT22;6189;52.526;13.390;2023-05-19T02:30:10;13.80;76.60
12254;DHT22;6189;52.526;13.390;2023-05-19T02:32:55;13.80;76.80
12254;DHT22;6189;52.526;13.390;2023-05-19T02:35:40;13.80;76.80
12254;DHT22;6189;52.526;13.390;2023-05-19T02:38:27;13.80;76.60
12254;DHT22;6189;52.526;13.390;2023-05-19T02:41:12;13.80;77.10
12254;DHT22;6189;52.526;13.390;2023-05-19T02:43:58;13.90;76.50
12254;DHT22;6189;52.526;13.390;2023-05-19T02:46:43;13.90;77.00
12254;DHT22;6189;52.526;13.390;2023-05-19T02:49:28;13.90;76.80
12254;DHT22;6189;52.526;13.390;2023-05-19T02:52:18;13.90;76.70
12254;DHT22;6189;52.526;13.390;2023-05-19T02:55:05;13.70;77.00
12254;DHT22;6189;52.526;13.390;2023-05-19T02:57:51;13.80;77.30
12254;DHT22;6189;52.526;13.390;2023-05-19T03:00:36;13.80;77.40
12254;DHT22;6189;52.526;13.390;2023-05-19T03:03:22;13.80;77.40
12254;DHT22;6189;52.526;13.390;2023-05-19T03:06:07;13.80;77.10
12254;DHT22;6189;52.526;13.390;2023-05-19T03:08:52;13.70;77.10
12254;DHT22;6189;52.526;13.390;2023-05-19T03:11:39;13.70;77.90
12254;DHT22;6189;52.526;13.390;2023-05-19T03:14:24;13.70;77.50
12254;DHT22;6189;52.526;13.390;2023-05-19T03:17:10;13.70;77.60
12254;DHT22;6189;52.526;13.390;2023-05-19T03:19:56;13.70;77.90
12254;DHT22;6189;52.526;13.390;2023-05-19T03:22:41;13.70;78.00
12254;DHT22;6189;52.526;13.390;2023-05-19T03:25:26;13.70;77.90
12254;DHT22;6189;52.526;13.390;2023-05-19T03:28:14;13.60;77.90
12254;DHT22;6189;52.526;13.390;2023-05-19T03:31:00;13.70;78.30
12254;DHT22;6189;52.526;13.390;2023-05-19T03:33:45;13.70;78.40
12254;DHT22;6189;52.526;13.390;2023-05-19T03:36:30;13.70;78.40
12254;DHT22;6189;52.526;13.390;2023-05-19T03:39:16;13.70;78.20
12254;DHT22;6189;52.526;13.390;2023-05-19T03:42:01;13.70;78.40
12254;DHT22;6189;52.526;13.390;2023-05-19T03:44:47;13.60;78.40
12254;DHT22;6189;52.526;13.390;2023-05-19T03:47:33;13.60;78.80
12254;DHT22;6189;52.526;13.390;2023-05-19T03:50:18;13.60;78.50
12254;DHT22;6189;52.526;13.390;2023-05-19T03:53:04;13.60;78.60
12254;DHT22;6189;52.526;13.390;2023-05-19T03:55:49;13.60;78.70
12254;DHT22;6189;52.526;13.390;2023-05-19T03:58:34;13.70;78.60
12254;DHT22;6189;52.526;13.390;2023-05-19T04:01:23;13.70;79.00
12254;DHT22;6189;52.526;13.390;2023-05-19T04:04:08;13.70;78.90
12254;DHT22;6189;52.526;13.390;2023-05-19T04:06:54;13.70;78.90
12254;DHT22;6189;52.526;13.390;2023-05-19T04:09:39;13.60;79.20
12254;DHT22;6189;52.526;13.390;2023-05-19T04:12:24;13.60;79.60
12254;DHT22;6189;52.526;13.390;2023-05-19T04:15:10;13.70;79.80
12254;DHT22;6189;52.526;13.390;2023-05-19T04:17:56;13.60;79.60
12254;DHT22;6189;52.526;13.390;2023-05-19T04:20:42;13.70;79.80
12254;DHT22;6189;52.526;13.390;2023-05-19T04:23:27;13.60;80.20
12254;DHT22;6189;52.526;13.390;2023-05-19T04:26:12;13.60;80.00
12254;DHT22;6189;52.526;13.390;2023-05-19T04:28:58;13.70;80.00
12254;DHT22;6189;52.526;13.390;2023-05-19T04:31:45;13.70;79.80
12254;DHT22;6189;52.526;13.390;2023-05-19T04:34:31;13.80;80.00
12254;DHT22;6189;52.526;13.390;2023-05-19T04:37:18;13.80;80.50
12254;DHT22;6189;52.526;13.390;2023-05-19T04:40:04;13.70;79.90
12254;DHT22;6189;52.526;13.390;2023-05-19T04:42:51;13.70;81.60
12254;DHT22;6189;52.526;13.390;2023-05-19T04:45:37;13.80;80.20
12254;DHT22;6189;52.526;13.390;2023-05-19T04:48:25;13.80;80.50
12254;DHT22;6189;52.526;13.390;2023-05-19T04:51:15;13.90;80.70
12254;DHT22;6189;52.526;13.390;2023-05-19T04:54:00;13.90;80.70
12254;DHT22;6189;52.526;13.390;2023-05-19T04:56:46;13.80;80.80
12254;DHT22;6189;52.526;13.390;2023-05-19T04:59:32;13.80;81.50
12254;DHT22;6189;52.526;13.390;2023-05-19T05:02:17;13.90;81.40
12254;DHT22;6189;52.526;13.390;2023-05-19T05:05:02;14.00;81.40
12254;DHT22;6189;52.526;13.390;2023-05-19T05:07:49;14.00;81.60
12254;DHT22;6189;52.526;13.390;2023-05-19T05:10:37;13.90;81.50
12254;DHT22;6189;52.526;13.390;2023-05-19T05:13:22;14.10;81.60
12254;DHT22;6189;52.526;13.390;2023-05-19T05:16:08;14.10;82.00
12254;DHT22;6189;52.526;13.390;2023-05-19T05:18:54;14.20;81.60
12254;DHT22;6189;52.526;13.390;2023-05-19T05:21:40;14.30;81.50
12254;DHT22;6189;52.526;13.390;2023-05-19T05:24:28;14.30;81.50
12254;DHT22;6189;52.526;13.390;2023-05-19T05:27:13;14.40;81.80
12254;DHT22;6189;52.526;13.390;2023-05-19T05:29:59;14.30;82.10
12254;DHT22;6189;52.526;13.390;2023-05-19T05:32:44;14.20;82.80
12254;DHT22;6189;52.526;13.390;2023-05-19T05:35:30;14.20;82.70
12254;DHT22;6189;52.526;13.390;2023-05-19T05:38:15;14.30;82.90
12254;DHT22;6189;52.526;13.390;2023-05-19T05:41:01;14.40;82.60
12254;DHT22;6189;52.526;13.390;2023-05-19T05:43:47;14.50;82.50
12254;DHT22;6189;52.526;13.390;2023-05-19T05:46:32;14.50;82.40
12254;DHT22;6189;52.526;13.390;2023-05-19T05:49:17;14.50;82.40
12254;DHT22;6189;52.526;13.390;2023-05-19T05:52:03;14.60;82.50
12254;DHT22;6189;52.526;13.390;2023-05-19T05:54:49;14.50;82.50
12254;DHT22;6189;52.526;13.390;2023-05-19T05:57:36;14.70;82.80
12254;DHT22;6189;52.526;13.390;2023-05-19T06:00:21;14.40;83.60
12254;DHT22;6189;52.526;13.390;2023-05-19T06:03:07;14.60;83.30
12254;DHT22;6189;52.526;13.390;2023-05-19T06:05:52;13.90;84.50
12254;DHT22;6189;52.526;13.390;2023-05-19T06:08:38;13.80;85.40
12254;DHT22;6189;52.526;13.390;2023-05-19T06:11:23;13.70;86.10
12254;DHT22;6189;52.526;13.390;2023-05-19T06:14:10;13.50;86.90
12254;DHT22;6189;52.526;13.390;2023-05-19T06:16:55;13.70;87.60
12254;DHT22;6189;52.526;13.390;2023-05-19T06:19:40;13.90;87.40
12254;DHT22;6189;52.526;13.390;2023-05-19T06:22:26;14.10;87.10
12254;DHT22;6189;52.526;13.390;2023-05-19T06:25:11;13.90;86.70
12254;DHT22;6189;52.526;13.390;2023-05-19T06:27:57;14.30;86.40
12254;DHT22;6189;52.526;13.390;2023-05-19T06:30:44;14.70;85.50
12254;DHT22;6189;52.526;13.390;2023-05-19T06:33:29;14.90;84.90
12254;DHT22;6189;52.526;13.390;2023-05-19T06:36:15;15.10;84.40
12254;DHT22;6189;52.526;13.390;2023-05-19T06:39:00;15.10;84.20
12254;DHT22;6189;52.526;13.390;2023-05-19T06:41:45;15.30;84.00
12254;DHT22;6189;52.526;13.390;2023-05-19T06:44:31;15.40;84.00
12254;DHT22;6189;52.526;13.390;2023-05-19T06:47:17;15.40;83.90
12254;DHT22;6189;52.526;13.390;2023-05-19T06:50:03;15.50;84.50
12254;DHT22;6189;52.526;13.390;2023-05-19T06:52:49;15.50;84.10
12254;DHT22;6189;52.526;13.390;2023-05-19T06:55:34;15.60;83.60
12254;DHT22;6189;52.526;13.390;2023-05-19T06:58:20;15.70;83.40
12254;DHT22;6189;52.526;13.390;2023-05-19T07:01:05;15.10;84.10
12254;DHT22;6189;52.526;13.390;2023-05-19T07:03:51;15.00;85.40
12254;DHT22;6189;52.526;13.390;2023-05-19T07:06:37;15.40;85.70
12254;DHT22;6189;52.526;13.390;2023-05-19T07:09:22;15.70;84.50
12254;DHT22;6189;52.526;13.390;2023-05-19T07:12:07;15.50;84.60
12254;DHT22;6189;52.526;13.390;2023-05-19T07:14:52;15.60;85.50
12254;DHT22;6189;52.526;13.390;2023-05-19T07:17:38;15.80;84.00
12254;DHT22;6189;52.526;13.390;2023-05-19T07:20:24;16.10;84.70
12254;DHT22;6189;52.526;13.390;2023-05-19T07:23:10;16.20;84.10
12254;DHT22;6189;52.526;13.390;2023-05-19T07:25:55;16.40;85.20
12254;DHT22;6189;52.526;13.390;2023-05-19T07:28:41;16.30;83.60
12254;DHT22;6189;52.526;13.390;2023-05-19T07:31:26;16.50;83.90
12254;DHT22;6189;52.526;13.390;2023-05-19T07:34:11;16.40;83.50
12254;DHT22;6189;52.526;13.390;2023-05-19T07:36:57;16.50;83.50
12254;DHT22;6189;52.526;13.390;2023-05-19T07:39:43;16.60;83.30
12254;DHT22;6189;52.526;13.390;2023-05-19T07:42:28;16.30;83.00
12254;DHT22;6189;52.526;13.390;2023-05-19T07:45:13;15.80;84.30
12254;DHT22;6189;52.526;13.390;2023-05-19T07:47:59;15.90;85.00
12254;DHT22;6189;52.526;13.390;2023-05-19T07:50:44;16.30;84.90
12254;DHT22;6189;52.526;13.390;2023-05-19T07:53:31;16.10;84.90
12254;DHT22;6189;52.526;13.390;2023-05-19T07:56:16;16.30;85.20
12254;DHT22;6189;52.526;13.390;2023-05-19T07:59:02;16.60;84.40
12254;DHT22;6189;52.526;13.390;2023-05-19T08:01:47;17.00;83.10
12254;DHT22;6189;52.526;13.390;2023-05-19T08:04:33;17.30;82.20
12254;DHT22;6189;52.526;13.390;2023-05-19T08:07:18;17.50;81.80
12254;DHT22;6189;52.526;13.390;2023-05-19T08:10:05;17.30;80.70
12254;DHT22;6189;52.526;13.390;2023-05-19T08:12:50;17.50;81.30
12254;DHT22;6189;52.526;13.390;2023-05-19T08:15:36;17.60;79.90
12254;DHT22;6189;52.526;13.390;2023-05-19T08:18:21;17.70;79.80
12254;DHT22;6189;52.526;13.390;2023-05-19T08:21:06;17.80;81.20
12254;DHT22;6189;52.526;13.390;2023-05-19T08:23:52;17.70;79.50
12254;DHT22;6189;52.526;13.390;2023-05-19T08:26:38;18.00;80.40
12254;DHT22;6189;52.526;13.390;2023-05-19T08:29:24;18.00;79.70
12254;DHT22;6189;52.526;13.390;2023-05-19T08:32:09;18.20;79.90
12254;DHT22;6189;52.526;13.390;2023-05-19T08:34:54;18.30;78.50
12254;DHT22;6189;52.526;13.390;2023-05-19T08:37:39;18.20;77.90
12254;DHT22;6189;52.526;13.390;2023-05-19T08:40:25;18.20;77.60
12254;DHT22;6189;52.526;13.390;2023-05-19T08:43:15;17.80;77.70
12254;DHT22;6189;52.526;13.390;2023-05-19T08:46:01;17.90;77.60
12254;DHT22;6189;52.526;13.390;2023-05-19T08:48:47;18.00;77.10
12254;DHT22;6189;52.526;13.390;2023-05-19T08:51:35;18.30;77.20
12254;DHT22;6189;52.526;13.390;2023-05-19T08:54:24;18.30;76.60
12254;DHT22;6189;52.526;13.390;2023-05-19T08:57:12;18.40;75.10
12254;DHT22;6189;52.526;13.390;2023-05-19T08:59:59;18.30;74.50
12254;DHT22;6189;52.526;13.390;2023-05-19T09:02:46;18.10;73.80
12254;DHT22;6189;52.526;13.390;2023-05-19T09:05:32;18.00;72.50
12254;DHT22;6189;52.526;13.390;2023-05-19T09:08:18;18.10;72.40
12254;DHT22;6189;52.526;13.390;2023-05-19T09:11:03;18.10;72.80
12254;DHT22;6189;52.526;13.390;2023-05-19T09:13:48;18.00;72.90
12254;DHT22;6189;52.526;13.390;2023-05-19T09:16:35;18.20;71.50
12254;DHT22;6189;52.526;13.390;2023-05-19T09:19:21;18.10;71.30
12254;DHT22;6189;52.526;13.390;2023-05-19T09:22:06;18.50;71.00
12254;DHT22;6189;52.526;13.390;2023-05-19T09:24:51;19.00;70.30
12254;DHT22;6189;52.526;13.390;2023-05-19T09:27:37;19.20;67.40
12254;DHT22;6189;52.526;13.390;2023-05-19T09:30:24;19.50;67.50
12254;DHT22;6189;52.526;13.390;2023-05-19T09:33:11;20.30;68.10
12254;DHT22;6189;52.526;13.390;2023-05-19T09:36:01;20.60;64.10
12254;DHT22;6189;52.526;13.390;2023-05-19T09:38:48;20.20;63.90
12254;DHT22;6189;52.526;13.390;2023-05-19T09:41:34;20.40;63.70
12254;DHT22;6189;52.526;13.390;2023-05-19T09:44:22;20.60;64.00
12254;DHT22;6189;52.526;13.390;2023-05-19T09:47:11;21.00;62.60
12254;DHT22;6189;52.526;13.390;2023-05-19T09:50:00;20.90;62.90
12254;DHT22;6189;52.526;13.390;2023-05-19T09:52:46;20.30;63.30
12254;DHT22;6189;52.526;13.390;2023-05-19T09:55:33;20.90;63.50
12254;DHT22;6189;52.526;13.390;2023-05-19T09:58:18;22.00;61.70
12254;DHT22;6189;52.526;13.390;2023-05-19T10:01:04;22.30;62.20
12254;DHT22;6189;52.526;13.390;2023-05-19T10:03:51;22.30;61.00
12254;DHT22;6189;52.526;13.390;2023-05-19T10:06:38;22.30;59.70
12254;DHT22;6189;52.526;13.390;2023-05-19T10:09:24;22.00;58.90
12254;DHT22;6189;52.526;13.390;2023-05-19T10:12:10;21.80;58.70
12254;DHT22;6189;52.526;13.390;2023-05-19T10:14:56;21.00;59.30
12254;DHT22;6189;52.526;13.390;2023-05-19T10:17:43;21.90;62.00
12254;DHT22;6189;52.526;13.390;2023-05-19T10:20:29;21.90;61.20
12254;DHT22;6189;52.526;13.390;2023-05-19T10:23:16;22.00;59.70
12254;DHT22;6189;52.526;13.390;2023-05-19T10:26:01;22.10;60.50
12254;DHT22;6189;52.526;13.390;2023-05-19T10:28:48;22.00;58.80
12254;DHT22;6189;52.526;13.390;2023-05-19T10:31:36;21.80;59.80
12254;DHT22;6189;52.526;13.390;2023-05-19T10:34:28;21.80;58.70
12254;DHT22;6189;52.526;13.390;2023-05-19T10:37:19;21.30;57.50
12254;DHT22;6189;52.526;13.390;2023-05-19T10:40:12;21.00;58.80
12254;DHT22;6189;52.526;13.390;2023-05-19T10:43:07;20.30;59.60
12254;DHT22;6189;52.526;13.390;2023-05-19T10:45:57;20.00;61.20
12254;DHT22;6189;52.526;13.390;2023-05-19T10:48:43;20.50;62.70
12254;DHT22;6189;52.526;13.390;2023-05-19T10:51:29;20.90;61.10
12254;DHT22;6189;52.526;13.390;2023-05-19T10:54:15;20.50;60.00
12254;DHT22;6189;52.526;13.390;2023-05-19T10:57:04;20.80;60.70
12254;DHT22;6189;52.526;13.390;2023-05-19T10:59:50;20.80;60.40
12254;DHT22;6189;52.526;13.390;2023-05-19T11:02:36;20.40;59.40
12254;DHT22;6189;52.526;13.390;2023-05-19T11:05:26;20.30;61.20
12254;DHT22;6189;52.526;13.390;2023-05-19T11:08:12;20.80;60.70
12254;DHT22;6189;52.526;13.390;2023-05-19T11:11:02;20.30;60.00
12254;DHT22;6189;52.526;13.390;2023-05-19T11:13:58;19.90;60.70
12254;DHT22;6189;52.526;13.390;2023-05-19T11:16:45;19.90;61.90
12254;DHT22;6189;52.526;13.390;2023-05-19T11:19:31;20.40;61.90
12254;DHT22;6189;52.526;13.390;2023-05-19T11:22:16;20.60;60.40
12254;DHT22;6189;52.526;13.390;2023-05-19T11:25:01;20.80;59.90
12254;DHT22;6189;52.526;13.390;2023-05-19T11:27:47;20.80;59.50
12254;DHT22;6189;52.526;13.390;2023-05-19T11:30:37;21.00;60.40
12254;DHT22;6189;52.526;13.390;2023-05-19T11:33:22;21.00;59.10
12254;DHT22;6189;52.526;13.390;2023-05-19T11:36:09;21.10;59.70
12254;DHT22;6189;52.526;13.390;2023-05-19T11:38:56;21.20;59.60
12254;DHT22;6189;52.526;13.390;2023-05-19T11:41:42;21.30;60.30
12254;DHT22;6189;52.526;13.390;2023-05-19T11:44:27;21.00;60.50
12254;DHT22;6189;52.526;13.390;2023-05-19T11:47:14;21.10;60.60
12254;DHT22;6189;52.526;13.390;2023-05-19T11:50:00;21.00;59.50
12254;DHT22;6189;52.526;13.390;2023-05-19T11:52:45;20.40;58.60
12254;DHT22;6189;52.526;13.390;2023-05-19T11:55:31;19.50;61.10
12254;DHT22;6189;52.526;13.390;2023-05-19T11:58:17;19.80;61.30
12254;DHT22;6189;52.526;13.390;2023-05-19T12:01:02;20.00;60.10
12254;DHT22;6189;52.526;13.390;2023-05-19T12:03:49;19.90;61.50
12254;DHT22;6189;52.526;13.390;2023-05-19T12:06:34;19.80;61.60
12254;DHT22;6189;52.526;13.390;2023-05-19T12:09:21;20.30;61.10
12254;DHT22;6189;52.526;13.390;2023-05-19T12:12:06;20.40;59.10
12254;DHT22;6189;52.526;13.390;2023-05-19T12:14:52;20.10;59.50
12254;DHT22;6189;52.526;13.390;2023-05-19T12:17:37;19.80;59.30
12254;DHT22;6189;52.526;13.390;2023-05-19T12:20:24;19.50;59.10
12254;DHT22;6189;52.526;13.390;2023-05-19T12:23:10;19.60;61.10
12254;DHT22;6189;52.526;13.390;2023-05-19T12:25:55;20.20;60.50
12254;DHT22;6189;52.526;13.390;2023-05-19T12:28:43;20.40;58.30
12254;DHT22;6189;52.526;13.390;2023-05-19T12:31:29;20.70;58.40
12254;DHT22;6189;52.526;13.390;2023-05-19T12:34:14;20.90;58.30
12254;DHT22;6189;52.526;13.390;2023-05-19T12:37:02;21.10;57.90
12254;DHT22;6189;52.526;13.390;2023-05-19T12:39:47;20.90;58.00
12254;DHT22;6189;52.526;13.390;2023-05-19T12:42:33;21.10;59.90
12254;DHT22;6189;52.526;13.390;2023-05-19T12:45:19;21.10;58.40
12254;DHT22;6189;52.526;13.390;2023-05-19T12:48:04;21.00;57.80
12254;DHT22;6189;52.526;13.390;2023-05-19T12:50:50;21.30;58.40
12254;DHT22;6189;52.526;13.390;2023-05-19T12:53:37;21.10;58.60
12254;DHT22;6189;52.526;13.390;2023-05-19T12:56:24;20.80;57.60
12254;DHT22;6189;52.526;13.390;2023-05-19T12:59:10;20.70;59.70
12254;DHT22;6189;52.526;13.390;2023-05-19T13:01:56;20.30;59.00
12254;DHT22;6189;52.526;13.390;2023-05-19T13:04:41;20.30;59.70
12254;DHT22;6189;52.526;13.390;2023-05-19T13:07:27;19.70;59.80
12254;DHT22;6189;52.526;13.390;2023-05-19T13:10:13;20.20;60.30
12254;DHT22;6189;52.526;13.390;2023-05-19T13:12:59;20.40;58.90
12254;DHT22;6189;52.526;13.390;2023-05-19T13:15:45;20.30;59.50
12254;DHT22;6189;52.526;13.390;2023-05-19T13:18:31;19.90;59.80
12254;DHT22;6189;52.526;13.390;2023-05-19T13:21:18;19.80;61.20
12254;DHT22;6189;52.526;13.390;2023-05-19T13:24:03;20.30;61.50
12254;DHT22;6189;52.526;13.390;2023-05-19T13:26:50;20.60;61.70
12254;DHT22;6189;52.526;13.390;2023-05-19T13:29:35;20.70;60.20
12254;DHT22;6189;52.526;13.390;2023-05-19T13:32:21;21.10;59.00
12254;DHT22;6189;52.526;13.390;2023-05-19T13:35:06;21.20;58.60
12254;DHT22;6189;52.526;13.390;2023-05-19T13:37:52;21.30;59.00
12254;DHT22;6189;52.526;13.390;2023-05-19T13:40:37;21.10;59.20
12254;DHT22;6189;52.526;13.390;2023-05-19T13:43:24;21.30;59.80
12254;DHT22;6189;52.526;13.390;2023-05-19T13:46:10;21.10;59.10
12254;DHT22;6189;52.526;13.390;2023-05-19T13:48:55;21.20;59.50
12254;DHT22;6189;52.526;13.390;2023-05-19T13:51:41;21.10;59.80
12254;DHT22;6189;52.526;13.390;2023-05-19T13:54:26;21.10;58.70
12254;DHT22;6189;52.526;13.390;2023-05-19T13:57:11;21.10;59.30
12254;DHT22;6189;52.526;13.390;2023-05-19T13:59:58;21.00;59.20
12254;DHT22;6189;52.526;13.390;2023-05-19T14:02:44;20.20;59.60
12254;DHT22;6189;52.526;13.390;2023-05-19T14:05:29;19.90;61.00
12254;DHT22;6189;52.526;13.390;2023-05-19T14:08:15;20.30;61.60
12254;DHT22;6189;52.526;13.390;2023-05-19T14:11:01;19.90;61.10
12254;DHT22;6189;52.526;13.390;2023-05-19T14:13:46;19.60;61.50
12254;DHT22;6189;52.526;13.390;2023-05-19T14:16:33;19.20;62.50
12254;DHT22;6189;52.526;13.390;2023-05-19T14:19:18;19.00;63.60
12254;DHT22;6189;52.526;13.390;2023-05-19T14:22:03;19.50;63.30
12254;DHT22;6189;52.526;13.390;2023-05-19T14:24:49;19.20;62.60
12254;DHT22;6189;52.526;13.390;2023-05-19T14:27:34;19.50;63.70
12254;DHT22;6189;52.526;13.390;2023-05-19T14:30:20;19.80;63.20
12254;DHT22;6189;52.526;13.390;2023-05-19T14:33:07;20.20;63.20
12254;DHT22;6189;52.526;13.390;2023-05-19T14:35:52;20.30;63.10
12254;DHT22;6189;52.526;13.390;2023-05-19T14:38:38;20.50;61.60
12254;DHT22;6189;52.526;13.390;2023-05-19T14:41:23;20.40;60.80
12254;DHT22;6189;52.526;13.390;2023-05-19T14:44:09;20.70;61.20
12254;DHT22;6189;52.526;13.390;2023-05-19T14:46:54;20.80;60.80
12254;DHT22;6189;52.526;13.390;2023-05-19T14:49:41;20.40;60.90
12254;DHT22;6189;52.526;13.390;2023-05-19T14:52:26;20.00;62.50
12254;DHT22;6189;52.526;13.390;2023-05-19T14:55:11;20.20;63.50
12254;DHT22;6189;52.526;13.390;2023-05-19T14:57:57;20.40;62.50
12254;DHT22;6189;52.526;13.390;2023-05-19T15:00:42;20.40;62.80
12254;DHT22;6189;52.526;13.390;2023-05-19T15:03:27;19.80;63.80
12254;DHT22;6189;52.526;13.390;2023-05-19T15:06:14;20.00;64.20
12254;DHT22;6189;52.526;13.390;2023-05-19T15:08:59;19.70;62.90
12254;DHT22;6189;52.526;13.390;2023-05-19T15:11:44;19.20;64.00
12254;DHT22;6189;52.526;13.390;2023-05-19T15:14:30;19.50;64.20
12254;DHT22;6189;52.526;13.390;2023-05-19T15:17:15;19.90;62.30
12254;DHT22;6189;52.526;13.390;2023-05-19T15:20:00;20.30;62.50
12254;DHT22;6189;52.526;13.390;2023-05-19T15:22:47;20.50;61.40
12254;DHT22;6189;52.526;13.390;2023-05-19T15:25:32;20.60;61.40
12254;DHT22;6189;52.526;13.390;2023-05-19T15:28:18;20.60;60.40
12254;DHT22;6189;52.526;13.390;2023-05-19T15:31:03;20.70;60.40
12254;DHT22;6189;52.526;13.390;2023-05-19T15:33:48;20.70;60.60
12254;DHT22;6189;52.526;13.390;2023-05-19T15:36:34;20.40;60.70
12254;DHT22;6189;52.526;13.390;2023-05-19T15:39:20;20.50;61.30
12254;DHT22;6189;52.526;13.390;2023-05-19T15:42:06;19.80;60.80
12254;DHT22;6189;52.526;13.390;2023-05-19T15:44:51;20.10;61.20
12254;DHT22;6189;52.526;13.390;2023-05-19T15:47:36;19.90;62.10
12254;DHT22;6189;52.526;13.390;2023-05-19T15:50:21;19.60;61.30
12254;DHT22;6189;52.526;13.390;2023-05-19T15:53:09;19.20;62.90
12254;DHT22;6189;52.526;13.390;2023-05-19T15:55:55;19.70;63.40
12254;DHT22;6189;52.526;13.390;2023-05-19T15:58:41;20.00;61.80
12254;DHT22;6189;52.526;13.390;2023-05-19T16:01:26;20.10;62.00
12254;DHT22;6189;52.526;13.390;2023-05-19T16:04:11;20.30;61.60
12254;DHT22;6189;52.526;13.390;2023-05-19T16:06:57;20.40;61.50
12254;DHT22;6189;52.526;13.390;2023-05-19T16:09:42;19.90;61.70
12254;DHT22;6189;52.526;13.390;2023-05-19T16:12:29;19.20;63.00
12254;DHT22;6189;52.526;13.390;2023-05-19T16:15:15;19.50;63.00
12254;DHT22;6189;52.526;13.390;2023-05-19T16:18:00;19.10;63.10
12254;DHT22;6189;52.526;13.390;2023-05-19T16:20:45;19.00;63.50
12254;DHT22;6189;52.526;13.390;2023-05-19T16:23:31;18.80;63.80
12254;DHT22;6189;52.526;13.390;2023-05-19T16:26:16;19.40;63.60
12254;DHT22;6189;52.526;13.390;2023-05-19T16:29:03;19.70;62.20
12254;DHT22;6189;52.526;13.390;2023-05-19T16:31:48;19.00;62.20
12254;DHT22;6189;52.526;13.390;2023-05-19T16:34:34;18.50;63.30
12254;DHT22;6189;52.526;13.390;2023-05-19T16:37:19;18.60;63.90
12254;DHT22;6189;52.526;13.390;2023-05-19T16:40:05;18.90;63.90
12254;DHT22;6189;52.526;13.390;2023-05-19T16:42:51;18.80;63.20
12254;DHT22;6189;52.526;13.390;2023-05-19T16:45:37;19.20;64.00
12254;DHT22;6189;52.526;13.390;2023-05-19T16:48:23;19.50;62.70
12254;DHT22;6189;52.526;13.390;2023-05-19T16:51:08;19.30;62.50
12254;DHT22;6189;52.526;13.390;2023-05-19T16:53:54;18.90;63.20
12254;DHT22;6189;52.526;13.390;2023-05-19T16:56:39;18.50;64.50
12254;DHT22;6189;52.526;13.390;2023-05-19T16:59:24;18.80;64.60
12254;DHT22;6189;52.526;13.390;2023-05-19T17:02:11;19.30;63.70
12254;DHT22;6189;52.526;13.390;2023-05-19T17:04:56;18.90;62.80
12254;DHT22;6189;52.526;13.390;2023-05-19T17:07:41;19.30;63.30
12254;DHT22;6189;52.526;13.390;2023-05-19T17:10:26;19.10;62.90
12254;DHT22;6189;52.526;13.390;2023-05-19T17:13:12;18.60;64.20
12254;DHT22;6189;52.526;13.390;2023-05-19T17:15:57;19.20;64.70
12254;DHT22;6189;52.526;13.390;2023-05-19T17:18:44;19.10;63.20
12254;DHT22;6189;52.526;13.390;2023-05-19T17:21:30;19.40;63.60
12254;DHT22;6189;52.526;13.390;2023-05-19T17:24:16;18.70;64.20
12254;DHT22;6189;52.526;13.390;2023-05-19T17:27:01;18.50;65.60
12254;DHT22;6189;52.526;13.390;2023-05-19T17:29:47;18.80;65.50
12254;DHT22;6189;52.526;13.390;2023-05-19T17:32:33;18.60;64.70